FIN5PJ EFHK-LPMA
Flight info
| Callsign | FIN5PJ |
|---|---|
| Flight time | 5h 34m |
| Altitude | 30000 |
| Route | ADIVO Y365 POGOK DCT NOSLI DCT GIMLO DCT DEGAV DCT MAKUR DCT UPGAS/N0460F320 DCT TIPAN DCT WECOW DCT BINBO DCT AKOKO N866 GASGU/N0459F330 N866 SAM M195 LORKU DCT EBOMO DCT KORUL DCT DEMOS DCT IBIDO DCT TUNAV DCT PECKY DCT LIDRO |
| Aircraft | A321/M-SDE3FGHIRWY/LB1 |
Departure
| Time | 2026-05-04 10:41 |
|---|---|
| Airport | Helsinki Vantaa Airport (EFHK) |
Arrival
| Time | 2026-05-04 16:16 |
|---|---|
| Airport | Cristiano Ronaldo International Airport (LPMA) |
| Time | Latitude | Longitude | Altitude | Speed | Heading |
|---|---|---|---|---|---|
| 2026-05-04 10:28 | 60.31947 | 24.96929 | 167 ft | 0 kts | 242° |
| 2026-05-04 10:32 | 60.31964 | 24.97026 | 166 ft | 4 kts | 288° |
| 2026-05-04 10:33 | 60.31950 | 24.97065 | 166 ft | 3 kts | 332° |
| 2026-05-04 10:33 | 60.31943 | 24.97073 | 166 ft | 0 kts | 333° |
| 2026-05-04 10:35 | 60.31946 | 24.97070 | 166 ft | 2 kts | 333° |
| 2026-05-04 10:35 | 60.31979 | 24.97036 | 166 ft | 8 kts | 333° |
| 2026-05-04 10:35 | 60.32044 | 24.96968 | 166 ft | 13 kts | 333° |
| 2026-05-04 10:35 | 60.32084 | 24.96924 | 166 ft | 7 kts | 329° |
| 2026-05-04 10:36 | 60.32141 | 24.96856 | 166 ft | 11 kts | 329° |
| 2026-05-04 10:36 | 60.32221 | 24.96762 | 166 ft | 15 kts | 330° |
| 2026-05-04 10:36 | 60.32316 | 24.96652 | 168 ft | 16 kts | 330° |
| 2026-05-04 10:36 | 60.32401 | 24.96551 | 175 ft | 13 kts | 329° |
| 2026-05-04 10:37 | 60.32490 | 24.96450 | 173 ft | 16 kts | 330° |
| 2026-05-04 10:37 | 60.32595 | 24.96328 | 173 ft | 19 kts | 330° |
| 2026-05-04 10:37 | 60.32715 | 24.96188 | 172 ft | 21 kts | 330° |
| 2026-05-04 10:37 | 60.32845 | 24.96035 | 174 ft | 22 kts | 330° |
| 2026-05-04 10:39 | 60.33108 | 24.95078 | 178 ft | 13 kts | 266° |
| 2026-05-04 10:39 | 60.33112 | 24.94871 | 179 ft | 16 kts | 272° |
| 2026-05-04 10:39 | 60.33117 | 24.94647 | 192 ft | 16 kts | 272° |
| 2026-05-04 10:40 | 60.33121 | 24.94465 | 190 ft | 10 kts | 272° |
| 2026-05-04 10:40 | 60.33092 | 24.94339 | 194 ft | 11 kts | 229° |
| 2026-05-04 10:40 | 60.32925 | 24.93973 | 185 ft | 70 kts | 228° |
| 2026-05-04 10:40 | 60.32446 | 24.92918 | 173 ft | 131 kts | 227° |
| 2026-05-04 10:41 | 60.31712 | 24.91308 | 212 ft | 176 kts | 228° |
| 2026-05-04 10:41 | 60.30903 | 24.89526 | 1038 ft | 170 kts | 227° |
| 2026-05-04 10:41 | 60.30262 | 24.87540 | 1692 ft | 180 kts | 252° |
| 2026-05-04 10:41 | 60.30181 | 24.84939 | 1902 ft | 196 kts | 282° |
| 2026-05-04 10:42 | 60.30714 | 24.82282 | 2061 ft | 213 kts | 293° |
| 2026-05-04 10:42 | 60.31349 | 24.79445 | 2183 ft | 231 kts | 293° |
| 2026-05-04 10:42 | 60.31791 | 24.76289 | 2472 ft | 239 kts | 271° |
| 2026-05-04 10:42 | 60.31620 | 24.72851 | 2773 ft | 252 kts | 263° |
| 2026-05-04 10:43 | 60.31483 | 24.69318 | 3320 ft | 255 kts | 266° |
| 2026-05-04 10:44 | 60.31012 | 24.43974 | 7644 ft | 259 kts | 263° |
| 2026-05-04 10:45 | 60.30921 | 24.40360 | 8275 ft | 258 kts | 263° |
| 2026-05-04 10:45 | 60.30830 | 24.36758 | 8913 ft | 256 kts | 263° |
| 2026-05-04 10:45 | 60.30738 | 24.33181 | 9539 ft | 255 kts | 263° |
| 2026-05-04 10:45 | 60.30640 | 24.29592 | 9956 ft | 261 kts | 263° |
| 2026-05-04 10:46 | 60.30532 | 24.25811 | 10078 ft | 278 kts | 263° |
| 2026-05-04 10:46 | 60.30417 | 24.21819 | 10196 ft | 293 kts | 263° |
| 2026-05-04 10:46 | 60.30294 | 24.17612 | 10324 ft | 309 kts | 263° |
| 2026-05-04 10:46 | 60.30165 | 24.13162 | 10460 ft | 325 kts | 264° |
| 2026-05-04 10:47 | 60.30032 | 24.08514 | 10585 ft | 339 kts | 264° |
| 2026-05-04 10:47 | 60.29893 | 24.03676 | 10716 ft | 353 kts | 264° |
| 2026-05-04 10:47 | 60.29733 | 23.98723 | 10963 ft | 362 kts | 262° |
| 2026-05-04 10:47 | 60.29268 | 23.93719 | 11404 ft | 365 kts | 256° |
| 2026-05-04 10:49 | 60.25380 | 23.57982 | 14988 ft | 381 kts | 256° |
| 2026-05-04 10:49 | 60.24798 | 23.52775 | 15401 ft | 382 kts | 256° |
| 2026-05-04 10:50 | 60.24221 | 23.47618 | 15792 ft | 384 kts | 256° |
| 2026-05-04 10:51 | 60.20019 | 23.10333 | 18367 ft | 396 kts | 256° |
| 2026-05-04 10:52 | 60.19398 | 23.04925 | 18630 ft | 398 kts | 255° |
| 2026-05-04 10:52 | 60.18771 | 22.99497 | 18932 ft | 400 kts | 255° |
| 2026-05-04 10:52 | 60.18147 | 22.94114 | 19234 ft | 402 kts | 255° |
| 2026-05-04 10:54 | 60.13595 | 22.55389 | 21331 ft | 412 kts | 254° |
| 2026-05-04 10:54 | 60.12922 | 22.49791 | 21648 ft | 413 kts | 255° |
| 2026-05-04 10:56 | 60.08127 | 22.10262 | 23730 ft | 418 kts | 254° |
| 2026-05-04 10:56 | 60.07432 | 22.04614 | 24065 ft | 417 kts | 254° |
| 2026-05-04 10:56 | 60.06736 | 21.98980 | 24366 ft | 417 kts | 254° |
| 2026-05-04 10:57 | 60.06038 | 21.93351 | 24691 ft | 416 kts | 254° |
| 2026-05-04 10:57 | 60.05338 | 21.87738 | 25036 ft | 414 kts | 254° |
| 2026-05-04 10:57 | 60.04638 | 21.82149 | 25394 ft | 413 kts | 254° |
| 2026-05-04 10:57 | 60.03942 | 21.76595 | 25748 ft | 411 kts | 253° |
| 2026-05-04 10:58 | 60.03243 | 21.71052 | 26144 ft | 410 kts | 253° |
| 2026-05-04 10:58 | 60.02545 | 21.65544 | 26490 ft | 408 kts | 253° |
| 2026-05-04 10:58 | 60.01846 | 21.60039 | 26832 ft | 407 kts | 253° |
| 2026-05-04 10:58 | 60.01146 | 21.54557 | 27176 ft | 406 kts | 253° |
| 2026-05-04 10:59 | 60.00444 | 21.49106 | 27510 ft | 404 kts | 253° |
| 2026-05-04 10:59 | 59.99742 | 21.43681 | 27855 ft | 403 kts | 253° |
| 2026-05-04 10:59 | 59.99004 | 21.38356 | 28178 ft | 401 kts | 249° |
| 2026-05-04 10:59 | 59.97996 | 21.33181 | 28498 ft | 399 kts | 246° |
| 2026-05-04 11:00 | 59.96963 | 21.28057 | 28817 ft | 398 kts | 246° |
| 2026-05-04 11:01 | 59.89720 | 20.92621 | 30672 ft | 393 kts | 246° |
| 2026-05-04 11:02 | 59.88678 | 20.87574 | 30717 ft | 396 kts | 246° |
| 2026-05-04 11:05 | 59.72610 | 20.11000 | 30707 ft | 402 kts | 245° |
| 2026-05-04 11:06 | 59.70443 | 20.00871 | 30734 ft | 402 kts | 245° |
| 2026-05-04 11:06 | 59.68241 | 19.90676 | 30751 ft | 402 kts | 245° |
| 2026-05-04 11:10 | 59.52634 | 19.19664 | 30729 ft | 404 kts | 245° |
| 2026-05-04 11:12 | 59.43520 | 18.79286 | 30735 ft | 404 kts | 245° |
| 2026-05-04 11:12 | 59.41238 | 18.69293 | 30734 ft | 404 kts | 245° |
| 2026-05-04 11:13 | 59.38920 | 18.59168 | 30700 ft | 404 kts | 244° |
| 2026-05-04 11:13 | 59.36606 | 18.49117 | 30708 ft | 405 kts | 244° |
| 2026-05-04 11:16 | 59.24896 | 17.99041 | 30747 ft | 404 kts | 244° |
| 2026-05-04 11:16 | 59.22536 | 17.89068 | 30713 ft | 404 kts | 244° |
| 2026-05-04 11:17 | 59.20167 | 17.79109 | 30712 ft | 405 kts | 244° |
| 2026-05-04 11:19 | 59.10587 | 17.39390 | 30754 ft | 406 kts | 244° |
| 2026-05-04 11:19 | 59.08170 | 17.29469 | 30740 ft | 406 kts | 244° |
| 2026-05-04 11:20 | 59.05731 | 17.19561 | 30736 ft | 406 kts | 243° |
| 2026-05-04 11:20 | 59.03251 | 17.09725 | 30716 ft | 406 kts | 243° |
| 2026-05-04 11:22 | 58.93662 | 16.72070 | 30764 ft | 407 kts | 243° |
| 2026-05-04 11:23 | 58.91134 | 16.62257 | 30745 ft | 408 kts | 243° |
| 2026-05-04 11:25 | 58.82211 | 16.27902 | 30712 ft | 409 kts | 243° |
| 2026-05-04 11:25 | 58.79638 | 16.18108 | 30727 ft | 409 kts | 243° |
| 2026-05-04 11:27 | 58.68008 | 15.74133 | 30764 ft | 411 kts | 244° |
| 2026-05-04 11:28 | 58.65467 | 15.64290 | 30761 ft | 411 kts | 244° |
| 2026-05-04 11:28 | 58.62933 | 15.54522 | 30731 ft | 411 kts | 244° |
| 2026-05-04 11:29 | 58.60363 | 15.44706 | 30750 ft | 412 kts | 244° |
| 2026-05-04 11:29 | 58.57779 | 15.34914 | 30756 ft | 411 kts | 243° |
| 2026-05-04 11:33 | 58.39467 | 14.66655 | 30750 ft | 414 kts | 243° |
| 2026-05-04 11:33 | 58.36800 | 14.56906 | 30756 ft | 415 kts | 243° |
| 2026-05-04 11:34 | 58.34132 | 14.47176 | 30763 ft | 415 kts | 243° |
| 2026-05-04 11:34 | 58.31470 | 14.37433 | 30786 ft | 415 kts | 243° |
| 2026-05-04 11:35 | 58.28784 | 14.27723 | 30783 ft | 415 kts | 243° |
| 2026-05-04 11:35 | 58.26103 | 14.18079 | 30777 ft | 415 kts | 243° |
| 2026-05-04 11:36 | 58.23401 | 14.08402 | 30750 ft | 415 kts | 243° |
| 2026-05-04 11:36 | 58.20684 | 13.98713 | 30754 ft | 416 kts | 243° |
| 2026-05-04 11:37 | 58.17967 | 13.89023 | 30767 ft | 416 kts | 243° |
| 2026-05-04 11:37 | 58.15242 | 13.79333 | 30773 ft | 416 kts | 243° |
| 2026-05-04 11:38 | 58.12500 | 13.69674 | 30775 ft | 417 kts | 243° |
| 2026-05-04 11:38 | 58.09749 | 13.60029 | 30785 ft | 417 kts | 243° |
| 2026-05-04 11:39 | 58.06996 | 13.50394 | 30794 ft | 417 kts | 243° |
| 2026-05-04 11:41 | 57.97282 | 13.16737 | 30804 ft | 417 kts | 243° |
| 2026-05-04 11:41 | 57.94500 | 13.07156 | 30805 ft | 417 kts | 243° |
| 2026-05-04 11:42 | 57.91696 | 12.97602 | 30819 ft | 417 kts | 243° |
| 2026-05-04 11:42 | 57.88906 | 12.88134 | 30830 ft | 417 kts | 243° |
| 2026-05-04 11:43 | 57.86092 | 12.78587 | 30820 ft | 418 kts | 243° |
| 2026-05-04 11:43 | 57.83268 | 12.69027 | 30791 ft | 419 kts | 243° |
| 2026-05-04 11:44 | 57.80434 | 12.59464 | 30802 ft | 420 kts | 243° |
| 2026-05-04 11:44 | 57.77584 | 12.49905 | 30815 ft | 421 kts | 243° |
| 2026-05-04 11:45 | 57.74710 | 12.40347 | 30828 ft | 421 kts | 243° |
| 2026-05-04 11:45 | 57.71815 | 12.30799 | 30836 ft | 422 kts | 242° |
| 2026-05-04 11:46 | 57.68848 | 12.21330 | 30841 ft | 422 kts | 242° |
| 2026-05-04 11:46 | 57.65840 | 12.11906 | 30871 ft | 423 kts | 243° |
| 2026-05-04 11:47 | 57.62830 | 12.02441 | 30804 ft | 424 kts | 243° |
| 2026-05-04 11:47 | 57.59817 | 11.92957 | 30813 ft | 426 kts | 242° |
| 2026-05-04 11:48 | 57.56809 | 11.83496 | 30825 ft | 427 kts | 242° |
| 2026-05-04 11:48 | 57.53765 | 11.73978 | 30834 ft | 428 kts | 242° |
| 2026-05-04 11:49 | 57.50695 | 11.64482 | 30847 ft | 429 kts | 242° |
| 2026-05-04 11:49 | 57.47606 | 11.54975 | 30866 ft | 429 kts | 242° |
| 2026-05-04 11:50 | 57.44524 | 11.45484 | 30865 ft | 429 kts | 242° |
| 2026-05-04 11:50 | 57.41471 | 11.35959 | 30870 ft | 429 kts | 243° |
| 2026-05-04 11:51 | 57.38596 | 11.26269 | 30842 ft | 428 kts | 244° |
| 2026-05-04 11:51 | 57.35751 | 11.16565 | 30851 ft | 429 kts | 244° |
| 2026-05-04 11:52 | 57.32880 | 11.06938 | 30862 ft | 429 kts | 243° |
| 2026-05-04 11:52 | 57.29969 | 10.97295 | 30873 ft | 429 kts | 243° |
| 2026-05-04 11:53 | 57.27044 | 10.87673 | 30880 ft | 429 kts | 243° |
| 2026-05-04 11:53 | 57.24110 | 10.78064 | 30886 ft | 429 kts | 243° |
| 2026-05-04 11:55 | 57.12227 | 10.39474 | 30862 ft | 435 kts | 244° |
| 2026-05-04 11:56 | 57.09214 | 10.29798 | 30884 ft | 436 kts | 244° |
| 2026-05-04 11:56 | 57.06211 | 10.20187 | 30902 ft | 436 kts | 244° |
| 2026-05-04 11:57 | 57.03184 | 10.10513 | 30914 ft | 437 kts | 244° |
| 2026-05-04 11:57 | 57.00142 | 10.00838 | 30900 ft | 438 kts | 244° |
| 2026-05-04 11:58 | 56.97071 | 9.91141 | 30879 ft | 440 kts | 243° |
| 2026-05-04 11:58 | 56.93986 | 9.81438 | 30875 ft | 441 kts | 243° |
| 2026-05-04 11:59 | 56.90892 | 9.71713 | 30880 ft | 442 kts | 243° |
| 2026-05-04 11:59 | 56.87788 | 9.61992 | 30897 ft | 443 kts | 243° |
| 2026-05-04 12:00 | 56.84670 | 9.52295 | 30905 ft | 443 kts | 243° |
| 2026-05-04 12:00 | 56.81557 | 9.42658 | 30924 ft | 443 kts | 243° |
| 2026-05-04 12:01 | 56.78414 | 9.32974 | 30902 ft | 445 kts | 243° |
| 2026-05-04 12:02 | 56.67275 | 8.98851 | 30927 ft | 449 kts | 242° |
| 2026-05-04 12:03 | 56.64053 | 8.89100 | 30930 ft | 450 kts | 242° |
| 2026-05-04 12:03 | 56.60821 | 8.79358 | 30954 ft | 450 kts | 242° |
| 2026-05-04 12:04 | 56.57587 | 8.69632 | 30943 ft | 450 kts | 242° |
| 2026-05-04 12:04 | 56.54334 | 8.59910 | 30925 ft | 452 kts | 242° |
| 2026-05-04 12:05 | 56.51081 | 8.50236 | 30942 ft | 453 kts | 242° |
| 2026-05-04 12:05 | 56.47801 | 8.40494 | 30952 ft | 453 kts | 242° |
| 2026-05-04 12:06 | 56.44515 | 8.30763 | 30980 ft | 454 kts | 242° |
| 2026-05-04 12:06 | 56.41211 | 8.21024 | 30986 ft | 454 kts | 241° |
| 2026-05-04 12:07 | 56.37902 | 8.11302 | 30991 ft | 454 kts | 241° |
| 2026-05-04 12:07 | 56.34583 | 8.01601 | 30989 ft | 455 kts | 241° |
| 2026-05-04 12:08 | 56.31243 | 7.91899 | 30972 ft | 456 kts | 241° |
| 2026-05-04 12:08 | 56.27907 | 7.82239 | 30979 ft | 457 kts | 240° |
| 2026-05-04 12:09 | 56.24535 | 7.72513 | 30997 ft | 458 kts | 240° |
| 2026-05-04 12:09 | 56.21155 | 7.62788 | 31005 ft | 459 kts | 240° |
| 2026-05-04 12:10 | 56.17764 | 7.53080 | 31014 ft | 459 kts | 240° |
| 2026-05-04 12:10 | 56.14934 | 7.45025 | 31018 ft | 459 kts | 240° |
| 2026-05-04 12:11 | 56.11528 | 7.35325 | 31009 ft | 460 kts | 240° |
| 2026-05-04 12:11 | 56.08118 | 7.25628 | 30997 ft | 460 kts | 240° |
| 2026-05-04 12:12 | 56.04678 | 7.15948 | 31007 ft | 461 kts | 240° |
| 2026-05-04 12:12 | 56.01233 | 7.06279 | 31012 ft | 461 kts | 240° |
| 2026-05-04 12:14 | 55.87382 | 6.67734 | 31027 ft | 463 kts | 239° |
| 2026-05-04 12:15 | 55.83888 | 6.58089 | 31028 ft | 464 kts | 239° |
| 2026-05-04 12:15 | 55.80373 | 6.48468 | 31033 ft | 464 kts | 239° |
| 2026-05-04 12:16 | 55.76850 | 6.38866 | 31032 ft | 464 kts | 239° |
| 2026-05-04 12:16 | 55.73326 | 6.29256 | 31037 ft | 464 kts | 239° |
| 2026-05-04 12:17 | 55.69792 | 6.19651 | 31048 ft | 464 kts | 239° |
| 2026-05-04 12:17 | 55.66253 | 6.10089 | 31051 ft | 464 kts | 239° |
| 2026-05-04 12:18 | 55.62697 | 6.00545 | 31040 ft | 465 kts | 238° |
| 2026-05-04 12:18 | 55.59143 | 5.91050 | 31033 ft | 466 kts | 238° |
| 2026-05-04 12:19 | 55.55566 | 5.81485 | 31037 ft | 466 kts | 238° |
| 2026-05-04 12:19 | 55.51977 | 5.71942 | 31043 ft | 467 kts | 238° |
| 2026-05-04 12:20 | 55.48368 | 5.62405 | 31042 ft | 467 kts | 238° |
| 2026-05-04 12:20 | 55.44760 | 5.52879 | 31048 ft | 467 kts | 238° |
| 2026-05-04 12:21 | 55.41142 | 5.43358 | 31060 ft | 467 kts | 238° |
| 2026-05-04 12:21 | 55.37518 | 5.33852 | 31037 ft | 468 kts | 238° |
| 2026-05-04 12:22 | 55.33874 | 5.24363 | 31051 ft | 469 kts | 238° |
| 2026-05-04 12:22 | 55.30218 | 5.14869 | 31054 ft | 469 kts | 237° |
| 2026-05-04 12:23 | 55.26499 | 5.05446 | 31060 ft | 470 kts | 232° |
| 2026-05-04 12:23 | 55.21753 | 4.97672 | 31061 ft | 473 kts | 215° |
| 2026-05-04 12:24 | 55.16005 | 4.92001 | 31053 ft | 475 kts | 209° |
| 2026-05-04 12:24 | 55.10186 | 4.86544 | 31061 ft | 475 kts | 209° |
| 2026-05-04 12:25 | 55.04367 | 4.81084 | 31061 ft | 475 kts | 209° |
| 2026-05-04 12:25 | 54.98551 | 4.75646 | 31064 ft | 475 kts | 209° |
| 2026-05-04 12:26 | 54.92729 | 4.70224 | 31066 ft | 475 kts | 209° |
| 2026-05-04 12:26 | 54.86906 | 4.64802 | 31078 ft | 473 kts | 209° |
| 2026-05-04 12:27 | 54.81107 | 4.59439 | 31079 ft | 471 kts | 209° |
| 2026-05-04 12:27 | 54.75322 | 4.54103 | 31078 ft | 471 kts | 209° |
| 2026-05-04 12:28 | 54.69542 | 4.48795 | 31072 ft | 470 kts | 208° |
| 2026-05-04 12:28 | 54.63802 | 4.43536 | 31081 ft | 469 kts | 209° |
| 2026-05-04 12:29 | 54.58049 | 4.38270 | 31079 ft | 467 kts | 208° |
| 2026-05-04 12:29 | 54.52305 | 4.33035 | 31082 ft | 466 kts | 208° |
| 2026-05-04 12:30 | 54.46573 | 4.27828 | 31073 ft | 466 kts | 208° |
| 2026-05-04 12:30 | 54.40832 | 4.22633 | 31055 ft | 466 kts | 209° |
| 2026-05-04 12:31 | 54.35092 | 4.17452 | 31076 ft | 465 kts | 208° |
| 2026-05-04 12:31 | 54.29372 | 4.12314 | 31079 ft | 464 kts | 208° |
| 2026-05-04 12:32 | 54.20802 | 4.04641 | 31073 ft | 463 kts | 208° |
| 2026-05-04 12:33 | 54.15133 | 3.99593 | 31081 ft | 461 kts | 208° |
| 2026-05-04 12:33 | 54.09453 | 3.94553 | 31088 ft | 458 kts | 208° |
| 2026-05-04 12:34 | 54.03813 | 3.89556 | 31085 ft | 456 kts | 208° |
| 2026-05-04 12:34 | 53.98197 | 3.84580 | 31081 ft | 454 kts | 208° |
| 2026-05-04 12:35 | 53.92584 | 3.79637 | 31071 ft | 453 kts | 209° |
| 2026-05-04 12:35 | 53.87013 | 3.74745 | 31088 ft | 449 kts | 209° |
| 2026-05-04 12:36 | 53.81478 | 3.69891 | 31087 ft | 447 kts | 209° |
| 2026-05-04 12:36 | 53.75961 | 3.65068 | 31085 ft | 445 kts | 209° |
| 2026-05-04 12:37 | 53.70443 | 3.60271 | 31053 ft | 447 kts | 208° |
| 2026-05-04 12:37 | 53.64918 | 3.55467 | 31066 ft | 446 kts | 209° |
| 2026-05-04 12:38 | 53.59415 | 3.50708 | 31098 ft | 444 kts | 209° |
| 2026-05-04 12:38 | 53.53966 | 3.46010 | 31081 ft | 442 kts | 209° |
| 2026-05-04 12:39 | 53.48485 | 3.41293 | 31077 ft | 441 kts | 209° |
| 2026-05-04 12:39 | 53.43017 | 3.36606 | 31075 ft | 441 kts | 209° |
| 2026-05-04 12:40 | 53.37554 | 3.31933 | 31064 ft | 441 kts | 209° |
| 2026-05-04 12:40 | 53.32085 | 3.27269 | 31055 ft | 440 kts | 209° |
| 2026-05-04 12:41 | 53.26624 | 3.22610 | 31046 ft | 440 kts | 209° |
| 2026-05-04 12:41 | 53.21172 | 3.17973 | 31045 ft | 440 kts | 208° |
| 2026-05-04 12:42 | 53.15720 | 3.13364 | 31055 ft | 438 kts | 209° |
| 2026-05-04 12:42 | 53.10289 | 3.08793 | 31047 ft | 436 kts | 209° |
| 2026-05-04 12:43 | 53.04922 | 3.04276 | 31080 ft | 435 kts | 208° |
| 2026-05-04 12:43 | 52.99504 | 2.99730 | 31037 ft | 437 kts | 208° |
| 2026-05-04 12:44 | 52.94063 | 2.95187 | 31034 ft | 437 kts | 208° |
| 2026-05-04 12:44 | 52.88653 | 2.90664 | 31059 ft | 435 kts | 208° |
| 2026-05-04 12:45 | 52.83243 | 2.86169 | 31049 ft | 435 kts | 208° |
| 2026-05-04 12:45 | 52.78020 | 2.81231 | 31048 ft | 431 kts | 219° |
| 2026-05-04 12:46 | 52.73997 | 2.73995 | 31050 ft | 429 kts | 237° |
| 2026-05-04 12:46 | 52.71165 | 2.65336 | 31033 ft | 429 kts | 242° |
| 2026-05-04 12:47 | 52.68374 | 2.56623 | 31046 ft | 429 kts | 241° |
| 2026-05-04 12:47 | 52.65566 | 2.47931 | 31134 ft | 430 kts | 241° |
| 2026-05-04 12:47 | 52.64159 | 2.43584 | 31338 ft | 430 kts | 241° |
| 2026-05-04 12:48 | 52.62751 | 2.39228 | 31548 ft | 430 kts | 241° |
| 2026-05-04 12:48 | 52.61347 | 2.34882 | 31769 ft | 430 kts | 241° |
| 2026-05-04 12:48 | 52.59959 | 2.30589 | 31972 ft | 430 kts | 241° |
| 2026-05-04 12:48 | 52.58554 | 2.26251 | 32190 ft | 430 kts | 241° |
| 2026-05-04 12:49 | 52.57145 | 2.21919 | 32399 ft | 430 kts | 241° |
| 2026-05-04 12:49 | 52.55716 | 2.17541 | 32609 ft | 429 kts | 240° |
| 2026-05-04 12:49 | 52.54304 | 2.13218 | 32807 ft | 429 kts | 240° |
| 2026-05-04 12:49 | 52.52908 | 2.08950 | 32988 ft | 430 kts | 240° |
| 2026-05-04 12:50 | 52.51493 | 2.04627 | 33040 ft | 430 kts | 240° |
| 2026-05-04 12:50 | 52.48660 | 1.96001 | 33042 ft | 430 kts | 240° |
| 2026-05-04 12:51 | 52.45812 | 1.87351 | 33037 ft | 431 kts | 240° |
| 2026-05-04 12:51 | 52.42952 | 1.78706 | 33038 ft | 432 kts | 240° |
| 2026-05-04 12:52 | 52.40083 | 1.70070 | 33038 ft | 432 kts | 240° |
| 2026-05-04 12:52 | 52.37205 | 1.61438 | 33042 ft | 432 kts | 240° |
| 2026-05-04 12:53 | 52.34323 | 1.52816 | 33046 ft | 432 kts | 240° |
| 2026-05-04 12:53 | 52.31388 | 1.44212 | 33046 ft | 433 kts | 239° |
| 2026-05-04 12:54 | 52.28353 | 1.35691 | 33028 ft | 435 kts | 238° |
| 2026-05-04 12:54 | 52.25297 | 1.27146 | 33029 ft | 436 kts | 239° |
| 2026-05-04 12:55 | 52.22254 | 1.18603 | 33037 ft | 436 kts | 239° |
| 2026-05-04 12:55 | 52.19224 | 1.10114 | 33043 ft | 436 kts | 239° |
| 2026-05-04 12:56 | 52.16167 | 1.01588 | 33047 ft | 436 kts | 238° |
| 2026-05-04 12:56 | 52.13101 | 0.93065 | 33044 ft | 437 kts | 238° |
| 2026-05-04 12:57 | 52.10023 | 0.84519 | 33029 ft | 438 kts | 238° |
| 2026-05-04 12:57 | 52.06928 | 0.75950 | 33028 ft | 439 kts | 238° |
| 2026-05-04 12:58 | 52.03840 | 0.67453 | 33032 ft | 440 kts | 238° |
| 2026-05-04 12:58 | 52.00357 | 0.59348 | 33061 ft | 437 kts | 230° |
| 2026-05-04 12:59 | 51.96533 | 0.51685 | 33069 ft | 436 kts | 230° |
| 2026-05-04 12:59 | 51.93349 | 0.45334 | 33070 ft | 437 kts | 230° |
| 2026-05-04 13:00 | 51.89509 | 0.37679 | 33050 ft | 439 kts | 230° |
| 2026-05-04 13:00 | 51.85655 | 0.30001 | 33021 ft | 440 kts | 230° |
| 2026-05-04 13:01 | 51.81785 | 0.22328 | 33030 ft | 440 kts | 230° |
| 2026-05-04 13:01 | 51.77914 | 0.14658 | 33053 ft | 439 kts | 229° |
| 2026-05-04 13:02 | 51.74057 | 0.07036 | 33056 ft | 438 kts | 229° |
| 2026-05-04 13:02 | 51.70203 | -0.00552 | 33102 ft | 437 kts | 229° |
| 2026-05-04 13:03 | 51.66339 | -0.08125 | 33083 ft | 438 kts | 229° |
| 2026-05-04 13:03 | 51.62469 | -0.15685 | 33079 ft | 439 kts | 229° |
| 2026-05-04 13:04 | 51.58570 | -0.23283 | 33031 ft | 440 kts | 229° |
| 2026-05-04 13:04 | 51.54674 | -0.30856 | 33045 ft | 440 kts | 229° |
| 2026-05-04 13:05 | 51.50769 | -0.38411 | 33048 ft | 439 kts | 229° |
| 2026-05-04 13:05 | 51.46891 | -0.45914 | 33049 ft | 439 kts | 229° |
| 2026-05-04 13:06 | 51.42987 | -0.53435 | 33047 ft | 439 kts | 228° |
| 2026-05-04 13:06 | 51.39075 | -0.60932 | 33049 ft | 439 kts | 228° |
| 2026-05-04 13:07 | 51.35164 | -0.68420 | 33049 ft | 438 kts | 228° |
| 2026-05-04 13:07 | 51.31252 | -0.75898 | 33054 ft | 438 kts | 228° |
| 2026-05-04 13:08 | 51.27334 | -0.83369 | 33053 ft | 437 kts | 228° |
| 2026-05-04 13:08 | 51.23423 | -0.90798 | 33053 ft | 437 kts | 228° |
| 2026-05-04 13:09 | 51.19385 | -0.98009 | 33055 ft | 435 kts | 222° |
| 2026-05-04 13:09 | 51.15014 | -1.04701 | 33044 ft | 436 kts | 222° |
| 2026-05-04 13:10 | 51.10640 | -1.11420 | 33033 ft | 437 kts | 222° |
| 2026-05-04 13:10 | 51.06287 | -1.18100 | 33016 ft | 438 kts | 222° |
| 2026-05-04 13:11 | 51.01896 | -1.24811 | 33016 ft | 438 kts | 222° |
| 2026-05-04 13:11 | 50.97494 | -1.31514 | 33014 ft | 438 kts | 222° |
| 2026-05-04 13:12 | 50.92725 | -1.37437 | 33014 ft | 436 kts | 212° |
| 2026-05-04 13:12 | 50.87649 | -1.42700 | 33024 ft | 436 kts | 212° |
| 2026-05-04 13:13 | 50.82564 | -1.47986 | 33014 ft | 437 kts | 212° |
| 2026-05-04 13:13 | 50.77474 | -1.53279 | 33019 ft | 438 kts | 212° |
| 2026-05-04 13:14 | 50.72377 | -1.58552 | 33017 ft | 438 kts | 212° |
| 2026-05-04 13:14 | 50.67309 | -1.63773 | 33019 ft | 438 kts | 212° |
| 2026-05-04 13:15 | 50.62202 | -1.69013 | 33046 ft | 438 kts | 211° |
| 2026-05-04 13:15 | 50.57092 | -1.74259 | 33052 ft | 438 kts | 211° |
| 2026-05-04 13:16 | 50.52034 | -1.79432 | 33053 ft | 437 kts | 211° |
| 2026-05-04 13:16 | 50.46932 | -1.84638 | 33047 ft | 437 kts | 211° |
| 2026-05-04 13:17 | 50.41898 | -1.89764 | 33039 ft | 438 kts | 211° |
| 2026-05-04 13:17 | 50.36783 | -1.94960 | 33051 ft | 438 kts | 211° |
| 2026-05-04 13:18 | 50.31660 | -2.00156 | 33041 ft | 438 kts | 211° |
| 2026-05-04 13:18 | 50.26538 | -2.05327 | 33041 ft | 438 kts | 211° |
| 2026-05-04 13:19 | 50.21402 | -2.10454 | 33042 ft | 438 kts | 210° |
| 2026-05-04 13:19 | 50.16263 | -2.15443 | 33044 ft | 438 kts | 210° |
| 2026-05-04 13:20 | 50.11085 | -2.20437 | 33044 ft | 438 kts | 210° |
| 2026-05-04 13:20 | 50.05914 | -2.25433 | 33045 ft | 437 kts | 210° |
| 2026-05-04 13:21 | 50.00736 | -2.30443 | 33053 ft | 438 kts | 210° |
| 2026-05-04 13:21 | 49.95556 | -2.35440 | 33044 ft | 439 kts | 210° |
| 2026-05-04 13:22 | 49.90371 | -2.40439 | 33050 ft | 439 kts | 210° |
| 2026-05-04 13:22 | 49.85177 | -2.45434 | 33045 ft | 439 kts | 210° |
| 2026-05-04 13:23 | 49.80012 | -2.50393 | 33045 ft | 439 kts | 210° |
| 2026-05-04 13:23 | 49.74811 | -2.55362 | 33044 ft | 439 kts | 210° |
| 2026-05-04 13:24 | 49.69618 | -2.60318 | 33047 ft | 439 kts | 210° |
| 2026-05-04 13:24 | 49.64422 | -2.65263 | 33049 ft | 438 kts | 210° |
| 2026-05-04 13:25 | 49.56636 | -2.72652 | 33052 ft | 439 kts | 210° |
| 2026-05-04 13:25 | 49.51432 | -2.77579 | 33038 ft | 439 kts | 210° |
| 2026-05-04 13:26 | 49.46207 | -2.82510 | 33028 ft | 440 kts | 210° |
| 2026-05-04 13:26 | 49.40985 | -2.87419 | 33036 ft | 440 kts | 210° |
| 2026-05-04 13:27 | 49.35786 | -2.92296 | 33028 ft | 440 kts | 210° |
| 2026-05-04 13:27 | 49.30552 | -2.97195 | 33034 ft | 440 kts | 210° |
| 2026-05-04 13:28 | 49.25322 | -3.02083 | 33039 ft | 440 kts | 210° |
| 2026-05-04 13:28 | 49.20084 | -3.06961 | 33029 ft | 440 kts | 210° |
| 2026-05-04 13:29 | 49.14840 | -3.11837 | 33043 ft | 441 kts | 210° |
| 2026-05-04 13:29 | 49.09629 | -3.16665 | 33041 ft | 441 kts | 210° |
| 2026-05-04 13:30 | 49.04386 | -3.21519 | 33041 ft | 441 kts | 210° |
| 2026-05-04 13:30 | 48.99135 | -3.26359 | 33034 ft | 441 kts | 210° |
| 2026-05-04 13:31 | 48.93879 | -3.31193 | 33029 ft | 441 kts | 210° |
| 2026-05-04 13:31 | 48.88619 | -3.36016 | 33030 ft | 442 kts | 209° |
| 2026-05-04 13:32 | 48.83355 | -3.40833 | 33025 ft | 442 kts | 209° |
| 2026-05-04 13:32 | 48.78087 | -3.45653 | 33011 ft | 442 kts | 209° |
| 2026-05-04 13:33 | 48.72818 | -3.50457 | 33039 ft | 442 kts | 209° |
| 2026-05-04 13:33 | 48.67542 | -3.55245 | 33017 ft | 443 kts | 209° |
| 2026-05-04 13:34 | 48.62258 | -3.60034 | 33013 ft | 443 kts | 209° |
| 2026-05-04 13:34 | 48.57003 | -3.64797 | 33010 ft | 443 kts | 209° |
| 2026-05-04 13:35 | 48.49061 | -3.71950 | 33002 ft | 443 kts | 209° |
| 2026-05-04 13:36 | 48.43764 | -3.76707 | 33002 ft | 443 kts | 209° |
| 2026-05-04 13:36 | 48.38468 | -3.81455 | 33000 ft | 443 kts | 209° |
| 2026-05-04 13:37 | 48.33166 | -3.86197 | 33001 ft | 443 kts | 209° |
| 2026-05-04 13:37 | 48.27853 | -3.90933 | 32990 ft | 444 kts | 209° |
| 2026-05-04 13:38 | 48.22524 | -3.95677 | 32996 ft | 445 kts | 209° |
| 2026-05-04 13:38 | 48.17186 | -4.00416 | 32999 ft | 446 kts | 209° |
| 2026-05-04 13:39 | 48.11881 | -4.05111 | 33005 ft | 446 kts | 209° |
| 2026-05-04 13:39 | 48.06534 | -4.09828 | 33010 ft | 447 kts | 209° |
| 2026-05-04 13:40 | 48.01180 | -4.14547 | 33012 ft | 447 kts | 209° |
| 2026-05-04 13:40 | 47.95819 | -4.19264 | 33014 ft | 447 kts | 209° |
| 2026-05-04 13:41 | 47.90445 | -4.23974 | 33030 ft | 447 kts | 209° |
| 2026-05-04 13:41 | 47.85067 | -4.28675 | 33023 ft | 448 kts | 209° |
| 2026-05-04 13:42 | 47.77042 | -4.35839 | 33017 ft | 449 kts | 211° |
| 2026-05-04 13:42 | 47.71800 | -4.40786 | 33016 ft | 449 kts | 211° |
| 2026-05-04 13:43 | 47.66517 | -4.45758 | 33013 ft | 449 kts | 211° |
| 2026-05-04 13:43 | 47.61221 | -4.50664 | 33014 ft | 449 kts | 210° |
| 2026-05-04 13:44 | 47.55913 | -4.55541 | 33022 ft | 449 kts | 210° |
| 2026-05-04 13:44 | 47.50603 | -4.60414 | 33021 ft | 449 kts | 210° |
| 2026-05-04 13:45 | 47.45291 | -4.65286 | 33020 ft | 449 kts | 210° |
| 2026-05-04 13:45 | 47.39982 | -4.70150 | 33021 ft | 449 kts | 210° |
| 2026-05-04 13:46 | 47.34673 | -4.75003 | 33022 ft | 449 kts | 210° |
| 2026-05-04 13:46 | 47.29369 | -4.79840 | 33023 ft | 449 kts | 210° |
| 2026-05-04 13:47 | 47.24088 | -4.84634 | 33023 ft | 448 kts | 210° |
| 2026-05-04 13:47 | 47.18766 | -4.89446 | 33023 ft | 448 kts | 210° |
| 2026-05-04 13:48 | 47.13458 | -4.94252 | 33020 ft | 448 kts | 210° |
| 2026-05-04 13:48 | 47.08146 | -4.99047 | 33033 ft | 448 kts | 210° |
| 2026-05-04 13:49 | 47.03728 | -5.03032 | 33027 ft | 448 kts | 210° |
| 2026-05-04 13:49 | 46.98417 | -5.07811 | 33026 ft | 447 kts | 210° |
| 2026-05-04 13:50 | 46.93105 | -5.12561 | 33024 ft | 447 kts | 210° |
| 2026-05-04 13:50 | 46.87795 | -5.17304 | 33023 ft | 447 kts | 210° |
| 2026-05-04 13:51 | 46.82487 | -5.22040 | 33022 ft | 447 kts | 210° |
| 2026-05-04 13:51 | 46.77217 | -5.26725 | 33023 ft | 447 kts | 210° |
| 2026-05-04 13:52 | 46.69217 | -5.33813 | 33032 ft | 447 kts | 210° |
| 2026-05-04 13:53 | 46.63930 | -5.38489 | 33025 ft | 448 kts | 210° |
| 2026-05-04 13:53 | 46.58605 | -5.43195 | 33022 ft | 448 kts | 210° |
| 2026-05-04 13:54 | 46.50597 | -5.50247 | 33019 ft | 448 kts | 210° |
| 2026-05-04 13:55 | 46.42585 | -5.57269 | 33016 ft | 448 kts | 210° |
| 2026-05-04 13:55 | 46.34607 | -5.64235 | 33029 ft | 448 kts | 210° |
| 2026-05-04 13:56 | 46.29264 | -5.68906 | 33023 ft | 449 kts | 210° |
| 2026-05-04 13:57 | 46.21222 | -5.75901 | 33019 ft | 449 kts | 210° |
| 2026-05-04 13:58 | 46.10487 | -5.85168 | 33018 ft | 450 kts | 210° |
| 2026-05-04 13:58 | 46.02464 | -5.92093 | 33019 ft | 450 kts | 210° |
| 2026-05-04 13:59 | 45.97097 | -5.96716 | 33026 ft | 450 kts | 210° |
| 2026-05-04 14:00 | 45.89011 | -6.03640 | 33017 ft | 451 kts | 210° |
| 2026-05-04 14:00 | 45.80925 | -6.10565 | 33019 ft | 451 kts | 210° |
| 2026-05-04 14:01 | 45.75534 | -6.15159 | 33023 ft | 451 kts | 210° |
| 2026-05-04 14:02 | 45.67480 | -6.21988 | 33021 ft | 450 kts | 210° |
| 2026-05-04 14:02 | 45.62090 | -6.26549 | 33040 ft | 450 kts | 210° |
| 2026-05-04 14:03 | 45.56693 | -6.31114 | 33021 ft | 450 kts | 211° |
| 2026-05-04 14:03 | 45.51304 | -6.35665 | 33022 ft | 450 kts | 210° |
| 2026-05-04 14:04 | 45.43222 | -6.42464 | 33021 ft | 450 kts | 210° |
| 2026-05-04 14:04 | 45.37868 | -6.46951 | 33021 ft | 449 kts | 210° |
| 2026-05-04 14:05 | 45.29776 | -6.53713 | 33027 ft | 449 kts | 210° |
| 2026-05-04 14:06 | 45.24396 | -6.58205 | 33029 ft | 449 kts | 211° |
| 2026-05-04 14:06 | 45.19000 | -6.62698 | 33013 ft | 450 kts | 211° |
| 2026-05-04 14:07 | 45.13594 | -6.67177 | 33018 ft | 450 kts | 211° |
| 2026-05-04 14:07 | 45.08189 | -6.71662 | 33023 ft | 450 kts | 211° |
| 2026-05-04 14:08 | 45.02812 | -6.76109 | 33026 ft | 450 kts | 211° |
| 2026-05-04 14:08 | 44.97396 | -6.80559 | 33020 ft | 450 kts | 211° |
| 2026-05-04 14:09 | 44.89284 | -6.87223 | 33039 ft | 450 kts | 211° |
| 2026-05-04 14:10 | 44.81172 | -6.93912 | 33018 ft | 450 kts | 212° |
| 2026-05-04 14:10 | 44.75868 | -6.98611 | 33024 ft | 450 kts | 213° |
| 2026-05-04 14:11 | 44.70597 | -7.03395 | 33030 ft | 450 kts | 213° |
| 2026-05-04 14:11 | 44.62660 | -7.10457 | 33030 ft | 450 kts | 213° |
| 2026-05-04 14:12 | 44.57355 | -7.15117 | 33031 ft | 450 kts | 213° |
| 2026-05-04 14:13 | 44.49423 | -7.22077 | 33038 ft | 450 kts | 213° |
| 2026-05-04 14:13 | 44.44112 | -7.26741 | 33021 ft | 451 kts | 213° |
| 2026-05-04 14:14 | 44.38787 | -7.31393 | 33012 ft | 452 kts | 213° |
| 2026-05-04 14:14 | 44.30787 | -7.38356 | 33028 ft | 452 kts | 213° |
| 2026-05-04 14:15 | 44.20113 | -7.47630 | 33037 ft | 451 kts | 213° |
| 2026-05-04 14:16 | 44.12115 | -7.54546 | 33039 ft | 451 kts | 213° |
| 2026-05-04 14:17 | 44.04157 | -7.61403 | 33042 ft | 450 kts | 213° |
| 2026-05-04 14:18 | 43.96159 | -7.68289 | 33033 ft | 451 kts | 213° |
| 2026-05-04 14:19 | 43.85480 | -7.77428 | 33041 ft | 451 kts | 213° |
| 2026-05-04 14:19 | 43.80133 | -7.81982 | 33041 ft | 451 kts | 213° |
| 2026-05-04 14:20 | 43.74798 | -7.86536 | 33028 ft | 450 kts | 213° |
| 2026-05-04 14:20 | 43.69464 | -7.91072 | 33052 ft | 450 kts | 213° |
| 2026-05-04 14:21 | 43.61464 | -7.97845 | 33056 ft | 449 kts | 213° |
| 2026-05-04 14:21 | 43.56167 | -8.02308 | 33056 ft | 448 kts | 213° |
| 2026-05-04 14:22 | 43.50843 | -8.06793 | 33070 ft | 448 kts | 214° |
| 2026-05-04 14:22 | 43.45538 | -8.11276 | 33081 ft | 447 kts | 214° |
| 2026-05-04 14:23 | 43.37576 | -8.17974 | 33094 ft | 447 kts | 213° |
| 2026-05-04 14:24 | 43.32261 | -8.22410 | 33089 ft | 447 kts | 214° |
| 2026-05-04 14:24 | 43.26964 | -8.26837 | 33103 ft | 446 kts | 214° |
| 2026-05-04 14:25 | 43.21661 | -8.31259 | 33105 ft | 445 kts | 214° |
| 2026-05-04 14:25 | 43.13739 | -8.37848 | 33087 ft | 446 kts | 214° |
| 2026-05-04 14:26 | 43.08434 | -8.42255 | 33075 ft | 446 kts | 214° |
| 2026-05-04 14:26 | 43.03121 | -8.46651 | 33065 ft | 446 kts | 214° |
| 2026-05-04 14:27 | 42.97808 | -8.51041 | 33069 ft | 446 kts | 214° |
| 2026-05-04 14:27 | 42.92492 | -8.55426 | 33077 ft | 446 kts | 214° |
| 2026-05-04 14:28 | 42.87185 | -8.59794 | 33065 ft | 446 kts | 214° |
| 2026-05-04 14:28 | 42.81865 | -8.64162 | 33074 ft | 446 kts | 214° |
| 2026-05-04 14:29 | 42.71229 | -8.72884 | 33070 ft | 446 kts | 214° |
| 2026-05-04 14:30 | 42.65903 | -8.77225 | 33063 ft | 447 kts | 215° |
| 2026-05-04 14:31 | 42.57941 | -8.83696 | 33089 ft | 447 kts | 215° |
| 2026-05-04 14:32 | 42.47278 | -8.92359 | 33101 ft | 447 kts | 215° |
| 2026-05-04 14:32 | 42.41941 | -8.96677 | 33082 ft | 447 kts | 215° |
| 2026-05-04 14:33 | 42.36591 | -9.00991 | 33094 ft | 447 kts | 215° |
| 2026-05-04 14:33 | 42.31249 | -9.05293 | 33093 ft | 447 kts | 215° |
| 2026-05-04 14:34 | 42.25955 | -9.09558 | 33090 ft | 447 kts | 215° |
| 2026-05-04 14:34 | 42.20620 | -9.13837 | 33065 ft | 447 kts | 216° |
| 2026-05-04 14:35 | 42.15278 | -9.18113 | 33074 ft | 447 kts | 216° |
| 2026-05-04 14:35 | 42.09922 | -9.22404 | 33083 ft | 448 kts | 216° |
| 2026-05-04 14:36 | 42.04562 | -9.26677 | 33098 ft | 448 kts | 215° |
| 2026-05-04 14:36 | 41.99234 | -9.30905 | 33096 ft | 447 kts | 216° |
| 2026-05-04 14:37 | 41.93878 | -9.35154 | 33102 ft | 447 kts | 216° |
| 2026-05-04 14:37 | 41.88543 | -9.39419 | 33107 ft | 446 kts | 216° |
| 2026-05-04 14:38 | 41.83224 | -9.43714 | 33108 ft | 446 kts | 216° |
| 2026-05-04 14:38 | 41.77921 | -9.48017 | 33077 ft | 444 kts | 218° |
| 2026-05-04 14:39 | 41.72766 | -9.52538 | 33104 ft | 442 kts | 220° |
| 2026-05-04 14:39 | 41.68514 | -9.56428 | 33109 ft | 441 kts | 220° |
| 2026-05-04 14:40 | 41.60971 | -9.63383 | 33112 ft | 441 kts | 220° |
| 2026-05-04 14:40 | 41.55897 | -9.67987 | 33097 ft | 441 kts | 220° |
| 2026-05-04 14:41 | 41.50823 | -9.72574 | 33115 ft | 440 kts | 220° |
| 2026-05-04 14:42 | 41.40708 | -9.81704 | 33117 ft | 439 kts | 220° |
| 2026-05-04 14:42 | 41.35649 | -9.86260 | 33109 ft | 439 kts | 220° |
| 2026-05-04 14:43 | 41.30597 | -9.90806 | 33096 ft | 438 kts | 220° |
| 2026-05-04 14:43 | 41.25543 | -9.95337 | 33114 ft | 438 kts | 220° |
| 2026-05-04 14:44 | 41.20484 | -9.99862 | 33122 ft | 438 kts | 220° |
| 2026-05-04 14:44 | 41.15431 | -10.04379 | 33127 ft | 438 kts | 220° |
| 2026-05-04 14:45 | 41.10416 | -10.08853 | 33095 ft | 438 kts | 220° |
| 2026-05-04 14:45 | 41.05363 | -10.13350 | 33117 ft | 438 kts | 220° |
| 2026-05-04 14:46 | 41.00300 | -10.17849 | 33125 ft | 437 kts | 220° |
| 2026-05-04 14:46 | 40.95251 | -10.22330 | 33105 ft | 438 kts | 220° |
| 2026-05-04 14:47 | 40.90182 | -10.26809 | 33118 ft | 438 kts | 220° |
| 2026-05-04 14:47 | 40.85115 | -10.31291 | 33113 ft | 438 kts | 221° |
| 2026-05-04 14:48 | 40.80051 | -10.35770 | 33125 ft | 438 kts | 220° |
| 2026-05-04 14:48 | 40.74974 | -10.40224 | 33132 ft | 438 kts | 220° |
| 2026-05-04 14:49 | 40.69900 | -10.44665 | 33137 ft | 438 kts | 220° |
| 2026-05-04 14:49 | 40.64826 | -10.49111 | 33093 ft | 437 kts | 221° |
| 2026-05-04 14:50 | 40.59771 | -10.53546 | 33126 ft | 437 kts | 221° |
| 2026-05-04 14:50 | 40.54957 | -10.57752 | 33135 ft | 437 kts | 221° |
| 2026-05-04 14:51 | 40.49950 | -10.62120 | 33130 ft | 437 kts | 221° |
| 2026-05-04 14:51 | 40.44875 | -10.66542 | 33134 ft | 437 kts | 221° |
| 2026-05-04 14:52 | 40.39802 | -10.70946 | 33092 ft | 437 kts | 221° |
| 2026-05-04 14:52 | 40.34726 | -10.75347 | 33114 ft | 438 kts | 221° |
| 2026-05-04 14:53 | 40.29648 | -10.79750 | 33131 ft | 438 kts | 221° |
| 2026-05-04 14:53 | 40.24558 | -10.84149 | 33135 ft | 438 kts | 221° |
| 2026-05-04 14:54 | 40.19467 | -10.88533 | 33152 ft | 438 kts | 221° |
| 2026-05-04 14:54 | 40.14374 | -10.92921 | 33148 ft | 438 kts | 221° |
| 2026-05-04 14:55 | 40.09282 | -10.97309 | 33121 ft | 438 kts | 221° |
| 2026-05-04 14:55 | 40.04180 | -11.01682 | 33134 ft | 439 kts | 221° |
| 2026-05-04 14:56 | 39.99069 | -11.06060 | 33139 ft | 439 kts | 221° |
| 2026-05-04 14:56 | 39.93988 | -11.10397 | 33109 ft | 440 kts | 221° |
| 2026-05-04 14:57 | 39.88871 | -11.14764 | 33125 ft | 440 kts | 221° |
| 2026-05-04 14:57 | 39.83743 | -11.19135 | 33136 ft | 440 kts | 221° |
| 2026-05-04 14:58 | 39.78616 | -11.23502 | 33146 ft | 441 kts | 221° |
| 2026-05-04 14:58 | 39.73485 | -11.27861 | 33151 ft | 441 kts | 221° |
| 2026-05-04 14:59 | 39.68348 | -11.32208 | 33102 ft | 441 kts | 221° |
| 2026-05-04 15:00 | 39.60628 | -11.38735 | 33128 ft | 441 kts | 221° |
| 2026-05-04 15:00 | 39.55479 | -11.43075 | 33144 ft | 442 kts | 221° |
| 2026-05-04 15:01 | 39.47746 | -11.49588 | 33154 ft | 442 kts | 221° |
| 2026-05-04 15:01 | 39.42588 | -11.53920 | 33126 ft | 442 kts | 221° |
| 2026-05-04 15:02 | 39.37486 | -11.58187 | 33140 ft | 442 kts | 221° |
| 2026-05-04 15:02 | 39.32322 | -11.62503 | 33161 ft | 442 kts | 221° |
| 2026-05-04 15:03 | 39.27153 | -11.66828 | 33157 ft | 442 kts | 221° |
| 2026-05-04 15:03 | 39.21984 | -11.71132 | 33163 ft | 442 kts | 221° |
| 2026-05-04 15:04 | 39.16843 | -11.75408 | 33137 ft | 442 kts | 221° |
| 2026-05-04 15:04 | 39.11668 | -11.79703 | 33154 ft | 442 kts | 221° |
| 2026-05-04 15:05 | 39.06497 | -11.83999 | 33158 ft | 442 kts | 221° |
| 2026-05-04 15:05 | 39.01319 | -11.88287 | 33163 ft | 442 kts | 220° |
| 2026-05-04 15:06 | 38.96138 | -11.92567 | 33132 ft | 442 kts | 220° |
| 2026-05-04 15:07 | 38.88365 | -11.98978 | 33155 ft | 443 kts | 220° |
| 2026-05-04 15:07 | 38.83184 | -12.03246 | 33163 ft | 443 kts | 220° |
| 2026-05-04 15:08 | 38.77992 | -12.07505 | 33143 ft | 443 kts | 220° |
| 2026-05-04 15:08 | 38.72834 | -12.11725 | 33152 ft | 443 kts | 220° |
| 2026-05-04 15:09 | 38.67632 | -12.15980 | 33151 ft | 443 kts | 220° |
| 2026-05-04 15:09 | 38.62435 | -12.20228 | 33167 ft | 443 kts | 220° |
| 2026-05-04 15:10 | 38.54645 | -12.26582 | 33171 ft | 443 kts | 220° |
| 2026-05-04 15:11 | 38.46845 | -12.32924 | 33137 ft | 443 kts | 220° |
| 2026-05-04 15:11 | 38.41651 | -12.37144 | 33163 ft | 443 kts | 219° |
| 2026-05-04 15:12 | 38.36483 | -12.41329 | 33151 ft | 443 kts | 219° |
| 2026-05-04 15:12 | 38.31277 | -12.45530 | 33167 ft | 443 kts | 219° |
| 2026-05-04 15:13 | 38.26080 | -12.49726 | 33178 ft | 442 kts | 219° |
| 2026-05-04 15:13 | 38.20942 | -12.53865 | 33151 ft | 442 kts | 219° |
| 2026-05-04 15:14 | 38.15739 | -12.58050 | 33170 ft | 442 kts | 219° |
| 2026-05-04 15:14 | 38.10544 | -12.62220 | 33176 ft | 442 kts | 219° |
| 2026-05-04 15:15 | 38.05342 | -12.66390 | 33177 ft | 442 kts | 219° |
| 2026-05-04 15:15 | 38.00142 | -12.70557 | 33185 ft | 442 kts | 219° |
| 2026-05-04 15:16 | 37.92381 | -12.76759 | 33163 ft | 442 kts | 218° |
| 2026-05-04 15:17 | 37.84577 | -12.82969 | 33171 ft | 441 kts | 218° |
| 2026-05-04 15:17 | 37.76774 | -12.89165 | 33180 ft | 441 kts | 218° |
| 2026-05-04 15:18 | 37.71572 | -12.93292 | 33183 ft | 441 kts | 218° |
| 2026-05-04 15:19 | 37.63803 | -12.99443 | 33185 ft | 441 kts | 218° |
| 2026-05-04 15:19 | 37.55988 | -13.05605 | 33184 ft | 441 kts | 218° |
| 2026-05-04 15:20 | 37.50782 | -13.09705 | 33182 ft | 441 kts | 218° |
| 2026-05-04 15:20 | 37.45581 | -13.13795 | 33162 ft | 441 kts | 217° |
| 2026-05-04 15:21 | 37.40371 | -13.17890 | 33164 ft | 441 kts | 217° |
| 2026-05-04 15:22 | 37.32548 | -13.24010 | 33177 ft | 441 kts | 217° |
| 2026-05-04 15:22 | 37.24722 | -13.30124 | 33181 ft | 441 kts | 217° |
| 2026-05-04 15:23 | 37.19535 | -13.34172 | 33159 ft | 441 kts | 217° |
| 2026-05-04 15:23 | 37.14319 | -13.38231 | 33170 ft | 441 kts | 216° |
| 2026-05-04 15:24 | 37.03862 | -13.46361 | 33183 ft | 441 kts | 216° |
| 2026-05-04 15:25 | 36.98641 | -13.50402 | 33176 ft | 441 kts | 216° |
| 2026-05-04 15:26 | 36.90804 | -13.56456 | 33170 ft | 441 kts | 217° |
| 2026-05-04 15:26 | 36.83859 | -13.61820 | 33187 ft | 441 kts | 217° |
| 2026-05-04 15:27 | 36.76036 | -13.67842 | 33183 ft | 440 kts | 217° |
| 2026-05-04 15:28 | 36.68197 | -13.73861 | 33187 ft | 440 kts | 217° |
| 2026-05-04 15:29 | 36.60410 | -13.79825 | 33197 ft | 439 kts | 217° |
| 2026-05-04 15:30 | 36.42200 | -13.93705 | 33196 ft | 438 kts | 218° |
| 2026-05-04 15:31 | 36.34418 | -13.99624 | 33181 ft | 437 kts | 217° |
| 2026-05-04 15:32 | 36.21456 | -14.09437 | 33195 ft | 436 kts | 217° |
| 2026-05-04 15:34 | 36.08531 | -14.19188 | 33185 ft | 436 kts | 217° |
| 2026-05-04 15:34 | 36.00762 | -14.25039 | 33181 ft | 437 kts | 217° |
| 2026-05-04 15:35 | 35.92967 | -14.30876 | 33187 ft | 437 kts | 217° |
| 2026-05-04 15:36 | 35.85169 | -14.36714 | 33175 ft | 437 kts | 217° |
| 2026-05-04 15:36 | 35.79966 | -14.40597 | 33182 ft | 437 kts | 217° |
| 2026-05-04 15:37 | 35.74768 | -14.44473 | 33187 ft | 437 kts | 217° |
| 2026-05-04 15:37 | 35.69592 | -14.48331 | 33189 ft | 437 kts | 217° |
| 2026-05-04 15:38 | 35.64391 | -14.52201 | 33191 ft | 437 kts | 217° |
| 2026-05-04 15:38 | 35.59184 | -14.56067 | 33175 ft | 437 kts | 217° |
| 2026-05-04 15:39 | 35.53984 | -14.59922 | 33185 ft | 436 kts | 217° |
| 2026-05-04 15:40 | 35.46206 | -14.65679 | 33195 ft | 435 kts | 217° |
| 2026-05-04 15:40 | 35.41020 | -14.69506 | 33191 ft | 434 kts | 217° |
| 2026-05-04 15:41 | 35.35835 | -14.73321 | 33195 ft | 434 kts | 217° |
| 2026-05-04 15:41 | 35.30784 | -14.77025 | 33167 ft | 413 kts | 216° |
| 2026-05-04 15:42 | 35.25896 | -14.80617 | 33171 ft | 408 kts | 217° |
| 2026-05-04 15:42 | 35.21033 | -14.84195 | 33171 ft | 407 kts | 217° |
| 2026-05-04 15:43 | 35.16172 | -14.87768 | 33171 ft | 407 kts | 217° |
| 2026-05-04 15:43 | 35.11311 | -14.91336 | 33169 ft | 407 kts | 217° |
| 2026-05-04 15:44 | 35.06451 | -14.94898 | 33171 ft | 408 kts | 216° |
| 2026-05-04 15:44 | 35.01581 | -14.98453 | 33171 ft | 408 kts | 216° |
| 2026-05-04 15:45 | 34.96660 | -15.02045 | 33168 ft | 422 kts | 216° |
| 2026-05-04 15:45 | 34.91559 | -15.05753 | 33166 ft | 430 kts | 216° |
| 2026-05-04 15:46 | 34.86398 | -15.09491 | 33166 ft | 431 kts | 216° |
| 2026-05-04 15:46 | 34.81247 | -15.13230 | 33166 ft | 431 kts | 216° |
| 2026-05-04 15:47 | 34.76097 | -15.16971 | 33164 ft | 431 kts | 215° |
| 2026-05-04 15:47 | 34.70939 | -15.20707 | 33171 ft | 432 kts | 215° |
| 2026-05-04 15:48 | 34.65766 | -15.24436 | 33174 ft | 432 kts | 215° |
| 2026-05-04 15:48 | 34.58012 | -15.30028 | 33173 ft | 432 kts | 215° |
| 2026-05-04 15:49 | 34.52840 | -15.33751 | 33182 ft | 432 kts | 215° |
| 2026-05-04 15:49 | 34.47663 | -15.37476 | 33157 ft | 433 kts | 215° |
| 2026-05-04 15:50 | 34.42486 | -15.41192 | 33155 ft | 433 kts | 214° |
| 2026-05-04 15:50 | 34.39891 | -15.43051 | 32898 ft | 433 kts | 214° |
| 2026-05-04 15:50 | 34.37299 | -15.44908 | 32638 ft | 434 kts | 214° |
| 2026-05-04 15:51 | 34.34697 | -15.46771 | 32387 ft | 435 kts | 214° |
| 2026-05-04 15:51 | 34.32087 | -15.48640 | 32133 ft | 437 kts | 214° |
| 2026-05-04 15:51 | 34.29470 | -15.50513 | 31873 ft | 438 kts | 214° |
| 2026-05-04 15:51 | 34.26836 | -15.52393 | 31619 ft | 440 kts | 214° |
| 2026-05-04 15:52 | 34.24198 | -15.54272 | 31370 ft | 442 kts | 214° |
| 2026-05-04 15:52 | 34.21556 | -15.56163 | 31112 ft | 441 kts | 214° |
| 2026-05-04 15:52 | 34.18951 | -15.58033 | 30870 ft | 441 kts | 214° |
| 2026-05-04 15:52 | 34.16280 | -15.59948 | 30629 ft | 442 kts | 214° |
| 2026-05-04 15:53 | 34.13632 | -15.61839 | 30387 ft | 443 kts | 214° |
| 2026-05-04 15:53 | 34.11010 | -15.63701 | 30144 ft | 444 kts | 214° |
| 2026-05-04 15:53 | 34.08342 | -15.65595 | 29863 ft | 446 kts | 214° |
| 2026-05-04 15:53 | 34.05665 | -15.67496 | 29586 ft | 447 kts | 214° |
| 2026-05-04 15:54 | 34.02981 | -15.69400 | 29312 ft | 449 kts | 214° |
| 2026-05-04 15:54 | 34.00289 | -15.71312 | 29034 ft | 450 kts | 214° |
| 2026-05-04 15:54 | 33.97590 | -15.73228 | 28765 ft | 451 kts | 213° |
| 2026-05-04 15:54 | 33.94885 | -15.75145 | 28479 ft | 451 kts | 213° |
| 2026-05-04 15:55 | 33.92175 | -15.77064 | 28221 ft | 452 kts | 213° |
| 2026-05-04 15:55 | 33.89450 | -15.78988 | 27951 ft | 453 kts | 213° |
| 2026-05-04 15:55 | 33.86726 | -15.80908 | 27702 ft | 454 kts | 213° |
| 2026-05-04 15:55 | 33.83998 | -15.82832 | 27437 ft | 455 kts | 213° |
| 2026-05-04 15:56 | 33.81266 | -15.84763 | 27181 ft | 456 kts | 213° |
| 2026-05-04 15:56 | 33.78523 | -15.86699 | 26928 ft | 457 kts | 213° |
| 2026-05-04 15:56 | 33.75774 | -15.88633 | 26679 ft | 458 kts | 213° |
| 2026-05-04 15:56 | 33.73019 | -15.90570 | 26428 ft | 459 kts | 213° |
| 2026-05-04 15:57 | 33.70254 | -15.92512 | 26177 ft | 460 kts | 213° |
| 2026-05-04 15:57 | 33.67491 | -15.94454 | 25923 ft | 461 kts | 213° |
| 2026-05-04 15:57 | 33.64742 | -15.96438 | 25683 ft | 461 kts | 214° |
| 2026-05-04 15:57 | 33.62041 | -15.98520 | 25438 ft | 461 kts | 216° |
| 2026-05-04 15:58 | 33.59377 | -16.00668 | 25202 ft | 461 kts | 217° |
| 2026-05-04 15:58 | 33.56768 | -16.02813 | 24995 ft | 446 kts | 217° |
| 2026-05-04 15:58 | 33.54257 | -16.04878 | 24873 ft | 429 kts | 217° |
| 2026-05-04 15:58 | 33.51831 | -16.06849 | 24754 ft | 414 kts | 217° |
| 2026-05-04 15:59 | 33.49483 | -16.08732 | 24637 ft | 399 kts | 217° |
| 2026-05-04 15:59 | 33.47206 | -16.10538 | 24491 ft | 386 kts | 217° |
| 2026-05-04 15:59 | 33.44985 | -16.12293 | 24184 ft | 380 kts | 217° |
| 2026-05-04 15:59 | 33.42782 | -16.14031 | 23834 ft | 377 kts | 217° |
| 2026-05-04 16:00 | 33.40599 | -16.15753 | 23379 ft | 374 kts | 217° |
| 2026-05-04 16:00 | 33.38430 | -16.17467 | 22886 ft | 373 kts | 217° |
| 2026-05-04 16:00 | 33.36276 | -16.19172 | 22384 ft | 371 kts | 217° |
| 2026-05-04 16:00 | 33.34128 | -16.20873 | 21891 ft | 369 kts | 217° |
| 2026-05-04 16:01 | 33.32014 | -16.22548 | 21467 ft | 367 kts | 217° |
| 2026-05-04 16:01 | 33.29915 | -16.24207 | 21332 ft | 356 kts | 216° |
| 2026-05-04 16:01 | 33.27878 | -16.25811 | 21203 ft | 345 kts | 216° |
| 2026-05-04 16:01 | 33.25902 | -16.27364 | 21082 ft | 335 kts | 216° |
| 2026-05-04 16:02 | 33.23977 | -16.28877 | 20830 ft | 329 kts | 216° |
| 2026-05-04 16:02 | 33.22076 | -16.30376 | 20423 ft | 325 kts | 216° |
| 2026-05-04 16:02 | 33.18232 | -16.33420 | 17930 ft | 343 kts | 216° |
| 2026-05-04 16:03 | 33.16214 | -16.35016 | 16415 ft | 353 kts | 215° |
| 2026-05-04 16:03 | 33.14131 | -16.36662 | 14865 ft | 363 kts | 214° |
| 2026-05-04 16:03 | 33.12007 | -16.38338 | 13736 ft | 363 kts | 214° |
| 2026-05-04 16:03 | 33.09990 | -16.39920 | 13446 ft | 336 kts | 214° |
| 2026-05-04 16:04 | 33.08118 | -16.41383 | 13204 ft | 311 kts | 214° |
| 2026-05-04 16:04 | 33.04607 | -16.44128 | 11821 ft | 296 kts | 214° |
| 2026-05-04 16:04 | 33.02895 | -16.45471 | 11080 ft | 293 kts | 214° |
| 2026-05-04 16:05 | 33.01213 | -16.46788 | 10584 ft | 282 kts | 214° |
| 2026-05-04 16:05 | 32.99562 | -16.48079 | 10537 ft | 286 kts | 214° |
| 2026-05-04 16:05 | 32.96219 | -16.50694 | 10313 ft | 287 kts | 214° |
| 2026-05-04 16:06 | 32.94553 | -16.51996 | 10188 ft | 286 kts | 214° |
| 2026-05-04 16:06 | 32.90069 | -16.55497 | 9266 ft | 290 kts | 214° |
| 2026-05-04 16:07 | 32.87867 | -16.57212 | 8727 ft | 285 kts | 214° |
| 2026-05-04 16:07 | 32.83460 | -16.61207 | 7645 ft | 256 kts | 222° |
| 2026-05-04 16:08 | 32.82096 | -16.62562 | 7210 ft | 255 kts | 215° |
| 2026-05-04 16:08 | 32.77324 | -16.64880 | 5741 ft | 242 kts | 200° |
| 2026-05-04 16:09 | 32.74264 | -16.66124 | 4925 ft | 222 kts | 200° |
| 2026-05-04 16:09 | 32.71399 | -16.67285 | 4193 ft | 210 kts | 199° |
| 2026-05-04 16:10 | 32.68939 | -16.68283 | 3858 ft | 158 kts | 200° |
| 2026-05-04 16:11 | 32.65968 | -16.69483 | 3681 ft | 148 kts | 199° |
| 2026-05-04 16:11 | 32.64994 | -16.69877 | 3610 ft | 148 kts | 200° |
| 2026-05-04 16:12 | 32.62300 | -16.71602 | 2787 ft | 148 kts | 225° |
| 2026-05-04 16:12 | 32.60915 | -16.74819 | 2228 ft | 149 kts | 259° |
| 2026-05-04 16:13 | 32.60996 | -16.77246 | 2067 ft | 148 kts | 282° |
| 2026-05-04 16:13 | 32.62043 | -16.79356 | 1707 ft | 152 kts | 317° |
| 2026-05-04 16:14 | 32.63990 | -16.80335 | 1275 ft | 157 kts | 354° |
| 2026-05-04 16:14 | 32.66174 | -16.80333 | 850 ft | 157 kts | 3° |
| 2026-05-04 16:15 | 32.68658 | -16.78773 | 292 ft | 155 kts | 48° |
| 2026-05-04 16:16 | 32.69863 | -16.77359 | 190 ft | 45 kts | 45° |
| 2026-05-04 16:16 | 32.69807 | -16.77216 | 182 ft | 16 kts | 224° |
| 2026-05-04 16:17 | 32.69596 | -16.77477 | 169 ft | 24 kts | 226° |
| 2026-05-04 16:18 | 32.69440 | -16.77555 | 169 ft | 0 kts | 138° |